Time;durP1;ratioP1;P1;durP2;ratioP2;P2;SDS_P1;SDS_P2;PMS_P1;PMS_P2;Temp;Humidity;BMP_temperature;BMP_pressure;BME280_temperature;BME280_humidity;BME280_pressure;Samples;Min_cycle;Max_cycle;Signal;HPM_P1;HPM_P2
2022/08/09 00:02:28;;;;;;;1999.90;999.90;;;15.10;99.90;;;;;;5044971;28;20474;-71
2022/08/09 00:04:54;;;;;;;1999.90;999.90;;;15.20;99.90;;;;;;5046492;28;21118;-70
2022/08/09 00:07:21;;;;;;;1999.90;999.90;;;15.30;99.90;;;;;;5050270;28;20539;-70
2022/08/09 00:09:48;;;;;;;1999.90;999.90;;;15.30;99.90;;;;;;5047870;28;21297;-70
2022/08/09 00:12:14;;;;;;;1999.90;999.90;;;15.20;99.90;;;;;;5048924;28;20462;-71
2022/08/09 00:14:41;;;;;;;1999.90;999.90;;;14.80;99.90;;;;;;5044566;28;20486;-72
2022/08/09 00:17:08;;;;;;;1999.90;999.90;;;14.70;99.90;;;;;;5050166;28;20512;-72
2022/08/09 00:19:36;;;;;;;1999.90;999.90;;;14.70;99.90;;;;;;5048179;28;20894;-73
2022/08/09 00:22:03;;;;;;;1999.90;999.90;;;14.80;99.90;;;;;;5049790;28;20470;-73
2022/08/09 00:24:30;;;;;;;1999.90;999.90;;;14.90;99.90;;;;;;5048004;28;20474;-72
2022/08/09 00:26:57;;;;;;;1999.90;999.90;;;14.70;99.90;;;;;;5047953;28;20525;-71
2022/08/09 00:29:24;;;;;;;1999.90;999.90;;;15.00;99.90;;;;;;5048590;28;20466;-71
2022/08/09 00:31:51;;;;;;;1999.90;999.90;;;15.10;99.90;;;;;;5050577;28;20462;-70
2022/08/09 00:34:18;;;;;;;1999.90;999.90;;;15.20;99.90;;;;;;5052075;28;20438;-70
2022/08/09 00:36:46;;;;;;;1999.90;999.90;;;15.10;99.90;;;;;;5049134;28;20906;-70
2022/08/09 00:39:12;;;;;;;1999.90;999.90;;;15.00;99.90;;;;;;5047977;28;20463;-73
2022/08/09 00:41:39;;;;;;;1999.90;999.90;;;14.80;99.90;;;;;;5047725;28;20518;-72
2022/08/09 00:44:06;;;;;;;1999.90;999.90;;;14.80;99.90;;;;;;5049277;28;20563;-73
2022/08/09 00:46:32;;;;;;;1999.90;999.90;;;14.80;99.90;;;;;;5049155;28;20481;-72
2022/08/09 00:48:59;;;;;;;1999.90;999.90;;;14.60;99.90;;;;;;5048521;28;20963;-73
2022/08/09 00:51:26;;;;;;;1999.90;999.90;;;14.50;99.90;;;;;;5044278;28;20967;-72
2022/08/09 00:53:54;;;;;;;1999.90;999.90;;;14.50;99.90;;;;;;5048453;28;20972;-73
2022/08/09 00:56:20;;;;;;;1999.90;999.90;;;14.60;99.90;;;;;;5047369;28;20478;-71
2022/08/09 00:58:49;;;;;;;1999.90;999.90;;;14.80;99.90;;;;;;5047486;28;20458;-72
2022/08/09 01:01:20;;;;;;;1999.90;999.90;;;14.80;99.90;;;;;;5047929;28;20458;-72
2022/08/09 01:03:54;;;;;;;1999.90;999.90;;;14.80;99.90;;;;;;5042911;28;20478;-72
2022/08/09 01:06:28;;;;;;;1999.90;999.90;;;14.50;99.90;;;;;;5046957;28;20563;-73
2022/08/09 01:09:03;;;;;;;1999.90;999.90;;;14.50;99.90;;;;;;5046951;28;20458;-72
2022/08/09 01:11:41;;;;;;;1999.90;999.90;;;14.40;99.90;;;;;;5043929;28;20872;-72
2022/08/09 01:14:13;;;;;;;1999.90;999.90;;;14.30;99.90;;;;;;5047726;28;20544;-72
2022/08/09 01:16:41;;;;;;;1999.90;999.90;;;14.20;99.90;;;;;;5045092;28;20555;-71
2022/08/09 01:19:21;;;;;;;1999.90;999.90;;;14.20;99.90;;;;;;5047303;28;20454;-72
2022/08/09 01:21:54;;;;;;;1999.90;999.90;;;14.30;99.90;;;;;;5046826;28;21027;-72
2022/08/09 01:24:35;;;;;;;1999.90;999.90;;;14.40;99.90;;;;;;5046766;28;20532;-72
2022/08/09 01:27:07;;;;;;;1999.90;999.90;;;14.50;99.90;;;;;;5046555;28;20459;-72
2022/08/09 01:29:40;;;;;;;1999.90;999.90;;;14.60;99.90;;;;;;5045967;28;20466;-72
2022/08/09 01:32:09;;;;;;;1999.90;999.90;;;14.50;99.90;;;;;;5051933;28;20458;-72
2022/08/09 01:34:38;;;;;;;1999.90;999.90;;;14.60;99.90;;;;;;5050632;28;20538;-72
2022/08/09 01:37:08;;;;;;;1999.90;999.90;;;14.50;99.90;;;;;;5053110;28;20975;-73
2022/08/09 01:39:37;;;;;;;1999.90;999.90;;;14.30;99.90;;;;;;5049052;28;20528;-72
2022/08/09 01:42:07;;;;;;;1999.90;999.90;;;14.20;99.90;;;;;;5052476;28;20454;-72
2022/08/09 01:44:34;;;;;;;1999.90;999.90;;;14.10;99.90;;;;;;5051202;28;20486;-72
2022/08/09 01:47:03;;;;;;;1999.90;999.90;;;14.10;99.90;;;;;;5051814;28;20492;-73
2022/08/09 01:49:33;;;;;;;1999.90;999.90;;;14.20;99.90;;;;;;5051291;28;20462;-73
2022/08/09 01:52:04;;;;;;;1999.90;999.90;;;14.20;99.90;;;;;;5049305;28;20455;-72
2022/08/09 01:54:33;;;;;;;1999.90;999.90;;;13.90;99.90;;;;;;5050764;28;20458;-72
2022/08/09 01:57:05;;;;;;;1999.90;999.90;;;13.90;99.90;;;;;;5049423;28;20470;-73
2022/08/09 01:59:33;;;;;;;1999.90;999.90;;;13.90;99.90;;;;;;5051085;28;21029;-73
2022/08/09 02:02:02;;;;;;;1999.90;999.90;;;13.90;99.90;;;;;;5049444;28;20499;-72
2022/08/09 02:04:31;;;;;;;1999.90;999.90;;;13.90;99.90;;;;;;5049264;28;20539;-72
2022/08/09 02:07:14;;;;;;;1999.90;999.90;;;13.90;99.90;;;;;;5050219;28;20466;-72
2022/08/09 02:09:46;;;;;;;1999.90;999.90;;;14.00;99.90;;;;;;5048708;28;20462;-72
2022/08/09 02:12:16;;;;;;;1999.90;999.90;;;14.10;99.90;;;;;;5051740;28;20462;-72
2022/08/09 02:14:47;;;;;;;1999.90;999.90;;;14.10;99.90;;;;;;5051029;28;20922;-72
2022/08/09 02:17:16;;;;;;;1999.90;999.90;;;14.10;99.90;;;;;;5050508;28;20466;-72
2022/08/09 02:19:43;;;;;;;1999.90;999.90;;;14.10;99.90;;;;;;5049704;28;20466;-73
2022/08/09 02:22:17;;;;;;;1999.90;999.90;;;14.00;99.90;;;;;;5051029;28;21216;-73
2022/08/09 02:24:48;;;;;;;1999.90;999.90;;;14.00;99.90;;;;;;5050840;28;20557;-72
2022/08/09 02:27:18;;;;;;;1999.90;999.90;;;13.90;99.90;;;;;;5047840;28;20462;-73
2022/08/09 02:29:50;;;;;;;1999.90;999.90;;;13.70;99.90;;;;;;5046668;28;20517;-72
2022/08/09 02:32:19;;;;;;;1999.90;999.90;;;13.70;99.90;;;;;;5051029;28;20458;-72
2022/08/09 02:34:49;;;;;;;1999.90;999.90;;;13.60;99.90;;;;;;5050799;28;20527;-72
2022/08/09 02:37:18;;;;;;;1999.90;999.90;;;13.50;99.90;;;;;;5053125;28;20512;-72
2022/08/09 02:39:49;;;;;;;1999.90;999.90;;;13.50;99.90;;;;;;5046476;28;20462;-72
2022/08/09 02:42:19;;;;;;;1999.90;999.90;;;13.60;99.90;;;;;;5048710;28;20462;-72
2022/08/09 02:44:52;;;;;;;1999.90;999.90;;;13.80;99.90;;;;;;5049804;28;20493;-72
2022/08/09 02:47:21;;;;;;;1999.90;999.90;;;13.90;99.90;;;;;;5050436;28;21045;-73
2022/08/09 02:49:53;;;;;;;1999.90;999.90;;;13.60;99.90;;;;;;5048488;28;20462;-72
2022/08/09 02:52:22;;;;;;;1999.90;999.90;;;13.40;99.90;;;;;;5049164;28;20470;-72
2022/08/09 02:54:50;;;;;;;1999.90;999.90;;;13.10;99.90;;;;;;5049049;28;21011;-72
2022/08/09 02:57:19;;;;;;;1999.90;999.90;;;13.30;99.90;;;;;;5050295;28;20459;-73
2022/08/09 02:59:48;;;;;;;1999.90;999.90;;;13.20;99.90;;;;;;5050205;28;20990;-73
2022/08/09 03:02:16;;;;;;;1999.90;999.90;;;13.20;99.90;;;;;;5050759;28;20959;-73
2022/08/09 03:04:44;;;;;;;1999.90;999.90;;;13.10;99.90;;;;;;5049192;28;20879;-72
2022/08/09 03:07:12;;;;;;;1999.90;999.90;;;12.90;99.90;;;;;;5050093;28;20475;-72
2022/08/09 03:09:40;;;;;;;1999.90;999.90;;;12.90;99.90;;;;;;5048499;28;20516;-72
2022/08/09 03:12:08;;;;;;;1999.90;999.90;;;12.90;99.90;;;;;;5046628;28;20463;-73
2022/08/09 03:14:36;;;;;;;1999.90;999.90;;;12.90;99.90;;;;;;5048762;28;20482;-72
2022/08/09 03:17:04;;;;;;;1999.90;999.90;;;12.90;99.90;;;;;;5048093;28;20470;-72
2022/08/09 03:19:32;;;;;;;1999.90;999.90;;;13.00;99.90;;;;;;5049211;28;20947;-71
2022/08/09 03:21:59;;;;;;;1999.90;999.90;;;13.00;99.90;;;;;;5047739;28;20539;-72
2022/08/09 03:24:26;;;;;;;1999.90;999.90;;;13.10;99.90;;;;;;5046182;28;20509;-72
2022/08/09 03:26:54;;;;;;;1999.90;999.90;;;13.10;99.90;;;;;;5047595;28;20466;-71
2022/08/09 03:29:22;;;;;;;1999.90;999.90;;;13.10;99.90;;;;;;5047993;28;20587;-72
2022/08/09 03:31:49;;;;;;;1999.90;999.90;;;12.90;99.90;;;;;;5050745;28;20467;-72
2022/08/09 03:34:17;;;;;;;1999.90;999.90;;;12.90;99.90;;;;;;5048975;28;21002;-72
2022/08/09 03:36:44;;;;;;;1999.90;999.90;;;12.90;99.90;;;;;;5048843;28;20471;-72
2022/08/09 03:39:11;;;;;;;1999.90;999.90;;;12.90;99.90;;;;;;5047882;28;20459;-71
2022/08/09 03:41:37;;;;;;;1999.90;999.90;;;13.00;99.90;;;;;;5050726;28;20461;-71
2022/08/09 03:44:04;;;;;;;1999.90;999.90;;;12.90;99.90;;;;;;5049521;28;20458;-71
2022/08/09 03:46:31;;;;;;;1999.90;999.90;;;12.80;99.90;;;;;;5048184;28;20490;-72
2022/08/09 03:49:01;;;;;;;1999.90;999.90;;;12.90;99.90;;;;;;5048807;28;20473;-72
2022/08/09 03:51:30;;;;;;;1999.90;999.90;;;13.00;99.90;;;;;;5047019;28;20469;-71
2022/08/09 03:53:57;;;;;;;1999.90;999.90;;;13.10;99.90;;;;;;5044453;28;20523;-72
2022/08/09 03:56:25;;;;;;;1999.90;999.90;;;13.10;99.90;;;;;;5047961;28;21191;-72
2022/08/09 03:58:51;;;;;;;1999.90;999.90;;;13.10;99.90;;;;;;5048948;28;20488;-72
2022/08/09 04:01:18;;;;;;;1999.90;999.90;;;13.10;99.90;;;;;;5048622;28;20512;-73
2022/08/09 04:03:45;;;;;;;1999.90;999.90;;;13.20;99.90;;;;;;5049856;28;20535;-72
2022/08/09 04:06:12;;;;;;;1999.90;999.90;;;13.20;99.90;;;;;;5048365;28;20495;-72
2022/08/09 04:08:41;;;;;;;1999.90;999.90;;;12.90;99.90;;;;;;5044741;28;20466;-72
2022/08/09 04:11:07;;;;;;;1999.90;999.90;;;12.90;99.90;;;;;;5046726;28;22312;-72
2022/08/09 04:13:34;;;;;;;1999.90;999.90;;;12.70;99.90;;;;;;5048437;28;20470;-72
2022/08/09 04:16:00;;;;;;;1999.90;999.90;;;12.70;99.90;;;;;;5047223;28;20544;-71
2022/08/09 04:18:27;;;;;;;1999.90;999.90;;;12.60;99.90;;;;;;5050033;28;20826;-71
2022/08/09 04:20:54;;;;;;;1999.90;999.90;;;12.70;99.90;;;;;;5045877;28;20532;-72
2022/08/09 04:23:22;;;;;;;1999.90;999.90;;;12.80;99.90;;;;;;5047743;28;20466;-71
2022/08/09 04:25:50;;;;;;;1999.90;999.90;;;12.90;99.90;;;;;;5047808;28;20490;-72
2022/08/09 04:28:16;;;;;;;1999.90;999.90;;;13.10;99.90;;;;;;5047124;28;20466;-71
2022/08/09 04:30:43;;;;;;;1999.90;999.90;;;13.20;99.90;;;;;;5048851;28;20466;-72
2022/08/09 04:33:09;;;;;;;1999.90;999.90;;;13.30;99.90;;;;;;5050237;28;20458;-72
2022/08/09 04:35:38;;;;;;;1999.90;999.90;;;13.40;99.90;;;;;;5050086;28;21002;-72
2022/08/09 04:38:05;;;;;;;1999.90;999.90;;;13.30;99.90;;;;;;5048752;28;21899;-72
2022/08/09 04:43:14;;;;;;;1999.90;999.90;;;13.20;99.90;;;;;;5046831;28;20522;-72
2022/08/09 04:45:41;;;;;;;1999.90;999.90;;;13.20;99.90;;;;;;5048870;28;20490;-72
2022/08/09 04:48:07;;;;;;;1999.90;999.90;;;13.50;99.90;;;;;;5047017;28;20961;-72
2022/08/09 04:50:34;;;;;;;1999.90;999.90;;;13.50;99.90;;;;;;5045558;28;20471;-72
2022/08/09 04:53:01;;;;;;;1999.90;999.90;;;13.80;99.90;;;;;;5044529;28;20512;-72
2022/08/09 04:55:28;;;;;;;1999.90;999.90;;;14.00;99.90;;;;;;5042729;28;20470;-73
2022/08/09 04:57:54;;;;;;;1999.90;999.90;;;14.30;99.90;;;;;;5049999;28;20866;-72
2022/08/09 05:00:22;;;;;;;1999.90;999.90;;;14.60;99.90;;;;;;5050968;28;20524;-70
2022/08/09 05:02:49;;;;;;;1999.90;999.90;;;14.60;99.90;;;;;;5051859;28;20504;-70
2022/08/09 05:05:16;;;;;;;1999.90;999.90;;;14.60;99.90;;;;;;5049120;28;20989;-71
2022/08/09 05:07:42;;;;;;;1999.90;999.90;;;14.80;99.90;;;;;;5047767;28;20474;-70
2022/08/09 05:10:11;;;;;;;1999.90;999.90;;;15.00;99.90;;;;;;5046600;28;20462;-69
2022/08/09 05:12:38;;;;;;;1999.90;999.90;;;15.00;99.90;;;;;;5047495;28;20466;-70
2022/08/09 05:15:06;;;;;;;1999.90;999.90;;;15.20;99.90;;;;;;5046008;28;20891;-70
2022/08/09 05:17:34;;;;;;;1999.90;999.90;;;15.30;99.90;;;;;;5048824;28;20462;-70
2022/08/09 05:20:00;;;;;;;1999.90;999.90;;;15.60;99.90;;;;;;5044035;28;20466;-70
2022/08/09 05:22:27;;;;;;;1999.90;999.90;;;15.80;99.90;;;;;;5047458;28;20845;-71
2022/08/09 05:24:54;;;;;;;1999.90;999.90;;;16.20;99.90;;;;;;5046149;28;20486;-70
2022/08/09 05:27:21;;;;;;;1999.90;999.90;;;16.20;99.90;;;;;;5049321;28;20996;-69
2022/08/09 05:29:47;;;;;;;1999.90;999.90;;;16.40;99.90;;;;;;5045561;28;20467;-69
2022/08/09 05:32:14;;;;;;;1999.90;999.90;;;16.40;99.90;;;;;;5041538;28;20455;-72
2022/08/09 05:34:42;;;;;;;1999.90;999.90;;;16.40;99.90;;;;;;5050466;28;20482;-70
2022/08/09 05:37:09;;;;;;;1999.90;999.90;;;16.20;99.90;;;;;;5047385;28;21758;-70
2022/08/09 05:39:37;;;;;;;1999.90;999.90;;;16.30;99.90;;;;;;5049911;28;20470;-70
2022/08/09 05:42:04;;;;;;;1999.90;999.90;;;16.20;99.90;;;;;;5048125;28;20547;-70
2022/08/09 05:44:31;;;;;;;1999.90;999.90;;;16.30;99.90;;;;;;5041940;28;20970;-70
2022/08/09 05:46:58;;;;;;;1999.90;999.90;;;16.30;99.90;;;;;;5046667;28;20560;-70
2022/08/09 05:49:24;;;;;;;1999.90;999.90;;;16.60;99.90;;;;;;5049092;28;20485;-69
2022/08/09 05:51:52;;;;;;;1999.90;999.90;;;16.90;99.90;;;;;;5048042;28;20520;-70
2022/08/09 05:54:19;;;;;;;1999.90;999.90;;;17.10;99.90;;;;;;5047754;28;20459;-69
2022/08/09 05:56:46;;;;;;;1999.90;999.90;;;17.20;99.90;;;;;;5048385;28;20892;-73
2022/08/09 05:59:12;;;;;;;1999.90;999.90;;;17.30;99.90;;;;;;5045312;28;20461;-73
2022/08/09 06:01:39;;;;;;;1999.90;999.90;;;17.60;99.90;;;;;;5048805;28;20470;-72
2022/08/09 06:04:05;;;;;;;1999.90;999.90;;;17.90;99.90;;;;;;5047184;28;20508;-71
2022/08/09 06:06:32;;;;;;;1999.90;999.90;;;18.10;99.90;;;;;;5042755;28;20485;-73
2022/08/09 06:09:00;;;;;;;1999.90;999.90;;;18.10;99.90;;;;;;5047776;28;20952;-73
2022/08/09 06:11:27;;;;;;;1999.90;999.90;;;18.40;99.90;;;;;;5043447;28;20478;-72
2022/08/09 06:13:54;;;;;;;1999.90;999.90;;;18.50;99.90;;;;;;5045944;28;20477;-72
2022/08/09 06:16:22;;;;;;;1999.90;999.90;;;18.90;99.90;;;;;;5042343;28;20517;-72
2022/08/09 06:18:49;;;;;;;1999.90;999.90;;;19.00;99.90;;;;;;5048342;28;20533;-73
2022/08/09 06:21:15;;;;;;;1999.90;999.90;;;19.10;99.90;;;;;;5049840;28;20462;-72
2022/08/09 06:23:42;;;;;;;1999.90;999.90;;;19.10;99.90;;;;;;5056268;28;20480;-72
2022/08/09 06:26:10;;;;;;;1999.90;999.90;;;19.10;99.90;;;;;;5049144;28;20551;-72
2022/08/09 06:28:37;;;;;;;1999.90;999.90;;;19.30;99.90;;;;;;5050798;28;20549;-72
2022/08/09 06:31:03;;;;;;;1999.90;999.90;;;19.30;99.90;;;;;;5048546;28;20462;-73
2022/08/09 06:33:30;;;;;;;1999.90;999.90;;;19.30;99.90;;;;;;5049702;28;20466;-71
2022/08/09 06:35:57;;;;;;;1999.90;999.90;;;19.60;99.90;;;;;;5048506;28;20604;-72
2022/08/09 06:38:23;;;;;;;1999.90;999.90;;;19.60;99.90;;;;;;5050241;28;20457;-72
2022/08/09 06:40:50;;;;;;;1999.90;999.90;;;19.50;99.90;;;;;;5049765;28;20474;-72
2022/08/09 06:43:18;;;;;;;1999.90;999.90;;;19.50;99.90;;;;;;5052239;28;20446;-72
2022/08/09 06:45:45;;;;;;;1999.90;999.90;;;19.70;99.90;;;;;;5044901;28;20566;-72
2022/08/09 06:48:12;;;;;;;1999.90;999.90;;;19.70;99.90;;;;;;5051056;28;20450;-72
2022/08/09 06:50:38;;;;;;;1999.90;999.90;;;19.80;99.90;;;;;;5054755;28;20450;-72
2022/08/09 06:53:05;;;;;;;1999.90;999.90;;;19.80;99.90;;;;;;5054469;28;20447;-72
2022/08/09 06:55:32;;;;;;;1999.90;999.90;;;19.80;99.90;;;;;;5053840;28;20466;-72
2022/08/09 06:58:00;;;;;;;1999.90;999.90;;;19.90;99.90;;;;;;5054039;28;20442;-72
2022/08/09 07:00:29;;;;;;;1999.90;999.90;;;20.00;99.90;;;;;;5053978;28;20454;-72
2022/08/09 07:02:55;;;;;;;1999.90;999.90;;;20.30;99.90;;;;;;5054037;28;20446;-72
2022/08/09 07:05:23;;;;;;;1999.90;999.90;;;20.40;99.90;;;;;;5052003;28;20537;-72
2022/08/09 07:07:49;;;;;;;1999.90;999.90;;;20.50;99.90;;;;;;5053742;28;20446;-72
2022/08/09 07:10:16;;;;;;;1999.90;999.90;;;20.70;99.90;;;;;;5053801;28;20442;-72
2022/08/09 07:12:43;;;;;;;1999.90;999.90;;;20.90;99.90;;;;;;5051085;28;20947;-72
2022/08/09 07:15:10;;;;;;;1999.90;999.90;;;21.10;99.90;;;;;;5051422;28;20478;-72
2022/08/09 07:17:38;;;;;;;1999.90;999.90;;;21.30;99.90;;;;;;5049469;28;20951;-71
2022/08/09 07:20:06;;;;;;;1999.90;999.90;;;21.20;99.90;;;;;;5053376;28;20500;-69
2022/08/09 07:22:33;;;;;;;1999.90;999.90;;;21.50;99.90;;;;;;5051650;28;20978;-68
2022/08/09 07:24:59;;;;;;;1999.90;999.90;;;21.50;99.90;;;;;;5050840;28;20567;-70
2022/08/09 07:27:26;;;;;;;1999.90;999.90;;;21.60;99.90;;;;;;5047052;28;20906;-70
2022/08/09 07:29:53;;;;;;;1999.90;999.90;;;21.70;99.90;;;;;;5051199;28;20488;-70
2022/08/09 07:32:20;;;;;;;1999.90;999.90;;;21.70;99.90;;;;;;5053248;28;20517;-70
2022/08/09 07:34:48;;;;;;;1999.90;999.90;;;21.80;99.90;;;;;;5053262;28;20462;-70
2022/08/09 07:37:14;;;;;;;1999.90;999.90;;;22.10;99.90;;;;;;5050969;28;20466;-70
2022/08/09 07:39:41;;;;;;;1999.90;999.90;;;22.00;99.90;;;;;;5051783;28;20508;-69
2022/08/09 07:42:08;;;;;;;1999.90;999.90;;;21.80;99.90;;;;;;5052957;28;20447;-70
2022/08/09 07:44:34;;;;;;;1999.90;999.90;;;21.90;99.90;;;;;;5052798;28;20932;-68
2022/08/09 07:47:01;;;;;;;1999.90;999.90;;;22.10;99.90;;;;;;5049739;28;20478;-70
2022/08/09 07:49:28;;;;;;;1999.90;999.90;;;22.20;99.90;;;;;;5049739;28;20488;-70
2022/08/09 07:51:56;;;;;;;1999.90;999.90;;;22.40;99.90;;;;;;5049755;28;20461;-69
2022/08/09 07:54:22;;;;;;;1999.90;999.90;;;22.70;99.90;;;;;;5047798;28;20466;-72
2022/08/09 07:56:49;;;;;;;1999.90;999.90;;;23.10;99.30;;;;;;5042328;28;20459;-71
2022/08/09 07:59:16;;;;;;;1999.90;999.90;;;23.20;98.40;;;;;;5047066;28;20454;-70
2022/08/09 08:01:42;;;;;;;1999.90;999.90;;;23.30;98.30;;;;;;5044848;28;20503;-70
2022/08/09 08:04:09;;;;;;;1999.90;999.90;;;23.00;98.70;;;;;;5048347;28;20465;-70
2022/08/09 08:06:36;;;;;;;1999.90;999.90;;;23.00;99.00;;;;;;5050426;28;20540;-71
2022/08/09 08:09:04;;;;;;;1999.90;999.90;;;23.20;99.00;;;;;;5052240;28;20542;-71
2022/08/09 08:11:30;;;;;;;1999.90;999.90;;;23.30;98.40;;;;;;5049574;28;20466;-71
2022/08/09 08:13:57;;;;;;;1999.90;999.90;;;23.70;97.60;;;;;;5049257;28;20512;-71
2022/08/09 08:16:24;;;;;;;1999.90;999.90;;;24.00;96.70;;;;;;5044897;28;20478;-71
2022/08/09 08:18:50;;;;;;;1999.90;999.90;;;23.80;97.10;;;;;;5050066;28;20471;-71
2022/08/09 08:21:17;;;;;;;1999.90;999.90;;;23.60;97.40;;;;;;5052965;28;20462;-71
2022/08/09 08:23:44;;;;;;;1999.90;999.90;;;23.60;97.20;;;;;;5052378;28;20457;-71
2022/08/09 08:26:12;;;;;;;1999.90;999.90;;;23.80;97.30;;;;;;5049308;28;20490;-70
2022/08/09 08:28:38;;;;;;;1999.90;999.90;;;24.10;96.90;;;;;;5045920;28;20462;-70
2022/08/09 08:31:05;;;;;;;1999.90;999.90;;;24.00;97.30;;;;;;5049031;28;20463;-72
2022/08/09 08:33:32;;;;;;;1999.90;999.90;;;24.10;97.30;;;;;;5050184;28;20466;-71
2022/08/09 08:35:58;;;;;;;1999.90;999.90;;;24.10;97.20;;;;;;5051542;28;20528;-70
2022/08/09 08:38:25;;;;;;;1999.90;999.90;;;24.50;97.00;;;;;;5049745;28;20960;-72
2022/08/09 08:40:54;;;;;;;1999.90;999.90;;;24.40;96.90;;;;;;5049023;28;20613;-71
2022/08/09 08:43:23;;;;;;;1999.90;999.90;;;24.00;96.50;;;;;;5045906;28;20459;-71
2022/08/09 08:45:51;;;;;;;1999.90;999.90;;;23.80;96.80;;;;;;5048518;28;20490;-72
2022/08/09 08:48:18;;;;;;;1999.90;999.90;;;24.40;97.00;;;;;;5047399;28;20956;-73
2022/08/09 08:50:47;;;;;;;1999.90;999.90;;;24.60;96.10;;;;;;5047289;28;20471;-71
2022/08/09 08:53:15;;;;;;;1999.90;999.90;;;24.40;96.00;;;;;;5045972;28;21159;-71
2022/08/09 08:55:42;;;;;;;1999.90;999.90;;;24.30;96.50;;;;;;5045658;28;20486;-71
2022/08/09 08:58:10;;;;;;;1999.90;999.90;;;24.50;96.40;;;;;;5046733;28;20462;-71
2022/08/09 09:00:41;;;;;;;1999.90;999.90;;;24.40;96.70;;;;;;5045162;28;20500;-73
2022/08/09 09:03:10;;;;;;;1999.90;999.90;;;24.60;96.30;;;;;;5045510;28;20454;-71
2022/08/09 09:05:37;;;;;;;1999.90;999.90;;;24.60;95.70;;;;;;5049196;28;20537;-70
2022/08/09 09:08:05;;;;;;;1999.90;999.90;;;24.60;96.20;;;;;;5046386;28;20519;-70
2022/08/09 09:10:34;;;;;;;1999.90;999.90;;;24.60;95.80;;;;;;5049400;28;20467;-71
2022/08/09 09:13:02;;;;;;;1999.90;999.90;;;24.50;95.60;;;;;;5048416;28;20458;-71
2022/08/09 09:15:29;;;;;;;1999.90;999.90;;;24.30;95.60;;;;;;5051682;28;21109;-70
2022/08/09 09:17:57;;;;;;;1999.90;999.90;;;24.30;96.30;;;;;;5047242;28;20494;-72
2022/08/09 09:20:23;;;;;;;1999.90;999.90;;;24.40;96.00;;;;;;5051197;28;20438;-72
2022/08/09 09:22:52;;;;;;;1999.90;999.90;;;24.80;95.50;;;;;;5046353;28;20457;-71
2022/08/09 09:25:38;;;;;;;1999.90;999.90;;;25.00;94.40;;;;;;5050361;28;20466;-72
2022/08/09 09:28:05;;;;;;;1999.90;999.90;;;25.10;94.50;;;;;;5051342;28;20521;-71
2022/08/09 09:30:32;;;;;;;1999.90;999.90;;;25.60;94.40;;;;;;5051433;28;20478;-71
2022/08/09 09:33:06;;;;;;;1999.90;999.90;;;25.80;93.30;;;;;;5051673;28;20503;-70
2022/08/09 09:35:33;;;;;;;1999.90;999.90;;;25.80;92.60;;;;;;5049546;28;20490;-71
2022/08/09 09:38:00;;;;;;;1999.90;999.90;;;25.10;93.60;;;;;;5047779;28;20462;-71
2022/08/09 09:40:43;;;;;;;1999.90;999.90;;;25.10;93.80;;;;;;5045549;28;20463;-71
2022/08/09 09:43:09;;;;;;;1999.90;999.90;;;24.90;93.60;;;;;;5047092;28;20504;-71
2022/08/09 09:45:48;;;;;;;1999.90;999.90;;;25.10;93.70;;;;;;5050517;28;20466;-71
2022/08/09 09:48:16;;;;;;;1999.90;999.90;;;25.30;93.20;;;;;;5051269;28;20481;-72
2022/08/09 09:50:44;;;;;;;1999.90;999.90;;;25.30;92.90;;;;;;5048868;28;20520;-71
2022/08/09 09:53:14;;;;;;;1999.90;999.90;;;25.30;93.30;;;;;;5051299;28;20496;-72
2022/08/09 09:55:51;;;;;;;1999.90;999.90;;;25.50;93.30;;;;;;5054728;28;20840;-72
2022/08/09 09:58:17;;;;;;;1999.90;999.90;;;25.50;93.40;;;;;;5055460;28;20429;-71
2022/08/09 10:00:45;;;;;;;1999.90;999.90;;;26.00;92.60;;;;;;5054934;28;20442;-71
2022/08/09 10:03:12;;;;;;;1999.90;999.90;;;26.10;92.40;;;;;;5055199;28;20438;-72
2022/08/09 10:05:56;;;;;;;1999.90;999.90;;;26.00;92.50;;;;;;5053179;28;20531;-72
2022/08/09 10:08:23;;;;;;;1999.90;999.90;;;25.90;92.90;;;;;;5051988;28;20951;-71
2022/08/09 10:10:50;;;;;;;1999.90;999.90;;;25.70;92.80;;;;;;5054908;28;20450;-71
2022/08/09 10:13:17;;;;;;;1999.90;999.90;;;25.50;93.90;;;;;;5055028;28;20503;-71
2022/08/09 10:15:48;;;;;;;1999.90;999.90;;;25.90;93.30;;;;;;5054524;28;20529;-72
2022/08/09 10:18:16;;;;;;;1999.90;999.90;;;26.00;92.90;;;;;;5054755;28;20444;-71
2022/08/09 10:20:43;;;;;;;1999.90;999.90;;;26.40;92.70;;;;;;5053541;28;20466;-70
2022/08/09 10:23:21;;;;;;;1999.90;999.90;;;25.90;93.20;;;;;;5054598;28;20450;-72
2022/08/09 10:25:49;;;;;;;1999.90;999.90;;;26.20;92.90;;;;;;5054104;28;20481;-71
2022/08/09 10:28:16;;;;;;;1999.90;999.90;;;26.10;92.10;;;;;;5054618;28;20478;-71
2022/08/09 10:30:43;;;;;;;1999.90;999.90;;;26.00;92.50;;;;;;5054332;28;20657;-72
2022/08/09 10:33:10;;;;;;;1999.90;999.90;;;26.10;91.90;;;;;;5053311;28;20445;-72
2022/08/09 10:35:37;;;;;;;1999.90;999.90;;;26.30;92.10;;;;;;5053903;28;20515;-71
2022/08/09 10:38:05;;;;;;;1999.90;999.90;;;26.40;92.80;;;;;;5054139;28;20450;-72
2022/08/09 10:40:35;;;;;;;1999.90;999.90;;;26.60;91.60;;;;;;5054447;28;20446;-71
2022/08/09 10:43:02;;;;;;;1999.90;999.90;;;26.80;91.00;;;;;;5054373;28;20515;-70
2022/08/09 10:45:30;;;;;;;1999.90;999.90;;;27.00;90.90;;;;;;5053859;28;20466;-69
2022/08/09 10:48:03;;;;;;;1999.90;999.90;;;27.10;90.30;;;;;;5053412;28;20565;-69
2022/08/09 10:53:38;;;;;;;1999.90;999.90;;;27.40;90.30;;;;;;5054182;28;20480;-70
2022/08/09 10:56:17;;;;;;;1999.90;999.90;;;27.30;87.30;;;;;;5051342;28;21466;-71
2022/08/09 10:58:44;;;;;;;1999.90;999.90;;;26.90;87.90;;;;;;5046945;28;20458;-71
2022/08/09 11:01:39;;;;;;;1999.90;999.90;;;27.10;88.70;;;;;;5053921;28;20496;-71
2022/08/09 11:04:20;;;;;;;1999.90;999.90;;;27.30;87.70;;;;;;5053291;28;20435;-69
2022/08/09 11:06:49;;;;;;;1999.90;999.90;;;27.70;85.90;;;;;;5053911;28;20466;-69
2022/08/09 11:09:39;;;;;;;1999.90;999.90;;;27.60;84.00;;;;;;5053372;28;20496;-70
2022/08/09 11:12:12;;;;;;;1999.90;999.90;;;27.60;84.20;;;;;;5050531;28;20474;-69
2022/08/09 11:14:43;;;;;;;1999.90;999.90;;;27.50;83.60;;;;;;5050252;28;20906;-71
2022/08/09 11:17:50;;;;;;;1999.90;999.90;;;27.30;84.80;;;;;;5053789;28;20438;-69
2022/08/09 11:20:18;;;;;;;1999.90;999.90;;;27.40;83.30;;;;;;5053612;28;20977;-69
2022/08/09 11:23:00;;;;;;;1999.90;999.90;;;27.30;83.50;;;;;;5053554;28;20458;-69
2022/08/09 11:28:38;;;;;;;1999.90;999.90;;;27.90;82.00;;;;;;5007256;28;20488;-72
2022/08/09 11:31:39;;;;;;;1999.90;999.90;;;28.10;80.90;;;;;;4993171;28;20449;-71
2022/08/09 11:34:12;;;;;;;1999.90;999.90;;;27.90;80.10;;;;;;4993944;28;20437;-69
2022/08/09 11:36:42;;;;;;;1999.90;999.90;;;27.80;83.10;;;;;;4993913;28;20950;-71
2022/08/09 11:39:09;;;;;;;1999.90;999.90;;;27.60;80.20;;;;;;5004713;28;20552;-71
2022/08/09 11:41:36;;;;;;;1999.90;999.90;;;27.50;80.70;;;;;;5013597;28;20475;-71
2022/08/09 11:44:04;;;;;;;1999.90;999.90;;;27.90;80.50;;;;;;5010889;28;20436;-69
2022/08/09 11:46:52;;;;;;;1999.90;999.90;;;28.00;79.50;;;;;;5009418;28;20523;-71
2022/08/09 11:49:20;;;;;;;1999.90;999.90;;;27.90;79.30;;;;;;5010702;28;21161;-71
2022/08/09 11:52:03;;;;;;;1999.90;999.90;;;27.90;80.00;;;;;;5013525;28;20458;-70
2022/08/09 11:54:29;;;;;;;1999.90;999.90;;;28.00;78.80;;;;;;5003925;28;20463;-71
2022/08/09 11:57:30;;;;;;;1999.90;999.90;;;28.20;78.50;;;;;;5012498;28;20488;-71
2022/08/09 12:00:04;;;;;;;1999.90;999.90;;;28.20;77.80;;;;;;5013980;28;20474;-71
2022/08/09 12:02:30;;;;;;;1999.90;999.90;;;27.90;78.20;;;;;;4993651;28;20429;-70
2022/08/09 12:04:57;;;;;;;1999.90;999.90;;;28.10;79.60;;;;;;5008013;28;20526;-70
2022/08/09 12:07:27;;;;;;;1999.90;999.90;;;28.20;78.20;;;;;;5008657;28;20559;-70
2022/08/09 12:09:59;;;;;;;1999.90;999.90;;;28.70;77.90;;;;;;5006521;28;20464;-69
2022/08/09 12:12:25;;;;;;;1999.90;999.90;;;28.90;76.00;;;;;;5008025;28;20460;-71
2022/08/09 12:14:52;;;;;;;1999.90;999.90;;;28.60;75.00;;;;;;5010338;28;20487;-69
2022/08/09 12:17:20;;;;;;;1999.90;999.90;;;28.50;75.20;;;;;;5012944;28;20529;-71